createdAt,value
2022-09-28T00:01:06.736Z,1.65
2022-09-28T00:03:34.603Z,1.95
2022-09-28T00:06:03.617Z,1.70
2022-09-28T00:08:31.515Z,1.38
2022-09-28T00:10:59.650Z,1.50
2022-09-28T00:13:28.184Z,1.27
2022-09-28T00:16:04.915Z,1.23
2022-09-28T00:18:33.278Z,1.38
2022-09-28T00:21:05.638Z,1.45
2022-09-28T00:23:34.425Z,1.35
2022-09-28T00:26:06.165Z,1.25
2022-09-28T00:28:34.078Z,1.48
2022-09-28T00:31:03.325Z,1.60
2022-09-28T00:33:31.207Z,1.52
2022-09-28T00:35:59.355Z,1.20
2022-09-28T00:38:28.638Z,1.23
2022-09-28T00:40:56.857Z,1.30
2022-09-28T00:43:26.321Z,1.35
2022-09-28T00:45:59.951Z,1.70
2022-09-28T00:48:33.677Z,1.70
2022-09-28T00:51:07.140Z,1.67
2022-09-28T00:53:37.817Z,1.55
2022-09-28T00:56:10.398Z,1.95
2022-09-28T00:58:42.772Z,1.17
2022-09-28T01:01:11.934Z,1.48
2022-09-28T01:03:45.269Z,1.50
2022-09-28T01:06:18.736Z,1.60
2022-09-28T01:08:47.893Z,1.80
2022-09-28T01:11:15.725Z,1.33
2022-09-28T01:13:44.484Z,1.55
2022-09-28T01:16:19.042Z,1.80
2022-09-28T01:18:58.870Z,1.60
2022-09-28T01:21:27.493Z,2.15
2022-09-28T01:24:10.262Z,1.48
2022-09-28T01:27:01.888Z,1.67
2022-09-28T01:29:38.736Z,1.50
2022-09-28T01:32:15.274Z,1.75
2022-09-28T01:34:50.007Z,1.60
2022-09-28T01:37:21.295Z,1.58
2022-09-28T01:39:50.980Z,1.85
2022-09-28T01:42:23.103Z,1.50
2022-09-28T01:44:53.415Z,1.80
2022-09-28T01:47:24.590Z,1.60
2022-09-28T01:49:59.123Z,1.92
2022-09-28T01:52:31.462Z,2.00
2022-09-28T01:55:04.106Z,2.60
2022-09-28T01:57:39.363Z,2.20
2022-09-28T02:00:10.511Z,1.85
2022-09-28T02:02:41.996Z,1.95
2022-09-28T02:05:15.442Z,1.80
2022-09-28T02:07:48.288Z,1.92
2022-09-28T02:10:19.993Z,1.70
2022-09-28T02:12:52.244Z,1.90
2022-09-28T02:15:24.923Z,1.70
2022-09-28T02:17:53.224Z,1.67
2022-09-28T02:20:24.021Z,2.25
2022-09-28T02:22:55.727Z,1.60
2022-09-28T02:25:30.969Z,1.98
2022-09-28T02:28:02.723Z,2.00
2022-09-28T02:30:31.613Z,2.17
2022-09-28T02:33:04.863Z,2.72
2022-09-28T02:35:34.858Z,2.20
2022-09-28T02:38:02.943Z,2.67
2022-09-28T02:40:34.314Z,3.20
2022-09-28T02:43:14.642Z,2.65
2022-09-28T02:46:01.815Z,2.70
2022-09-28T02:48:44.128Z,2.00
2022-09-28T02:51:23.894Z,1.70
2022-09-28T02:56:48.926Z,1.55
2022-09-28T02:59:29.704Z,2.72
2022-09-28T03:02:09.387Z,3.08
2022-09-28T03:04:43.231Z,2.78
2022-09-28T03:07:23.040Z,2.20
2022-09-28T03:09:59.905Z,2.97
2022-09-28T03:12:29.964Z,2.65
2022-09-28T03:15:10.480Z,2.47
2022-09-28T03:17:38.734Z,2.30
2022-09-28T03:20:07.634Z,1.42
2022-09-28T03:22:35.435Z,2.20
2022-09-28T03:25:03.246Z,2.00
2022-09-28T03:27:31.080Z,3.45
2022-09-28T03:29:59.001Z,2.22
2022-09-28T03:32:28.410Z,2.03
2022-09-28T03:34:56.716Z,2.22
2022-09-28T03:37:24.749Z,2.45
2022-09-28T03:39:52.630Z,2.20
2022-09-28T03:42:20.478Z,1.95
2022-09-28T03:44:48.379Z,1.90
2022-09-28T03:47:17.918Z,2.05
2022-09-28T03:49:47.267Z,2.28
2022-09-28T03:52:15.672Z,2.00
2022-09-28T03:54:48.349Z,1.88
2022-09-28T03:57:16.997Z,1.70
2022-09-28T03:59:44.834Z,2.53
2022-09-28T04:02:12.778Z,2.10
2022-09-28T04:04:40.669Z,1.92
2022-09-28T04:07:09.857Z,2.50
2022-09-28T04:09:37.749Z,2.90
2022-09-28T04:12:05.877Z,2.05
2022-09-28T04:14:33.907Z,1.73
2022-09-28T04:17:01.767Z,2.80
2022-09-28T04:19:29.720Z,2.15
2022-09-28T04:21:57.590Z,3.55
2022-09-28T04:24:26.753Z,2.40
2022-09-28T04:27:15.320Z,2.00
2022-09-28T04:29:43.056Z,2.45
2022-09-28T04:32:11.857Z,2.47
2022-09-28T04:34:43.254Z,2.35
2022-09-28T04:37:11.944Z,2.80
2022-09-28T04:39:44.019Z,1.33
2022-09-28T04:42:15.763Z,1.20
2022-09-28T04:44:43.687Z,1.10
2022-09-28T04:47:11.560Z,1.15
2022-09-28T04:49:39.435Z,1.00
2022-09-28T04:52:07.898Z,1.05
2022-09-28T04:54:36.008Z,1.00
2022-09-28T04:57:06.087Z,0.93
2022-09-28T04:59:33.978Z,0.95
2022-09-28T05:02:01.834Z,1.55
2022-09-28T05:04:30.505Z,1.02
2022-09-28T05:06:58.416Z,1.17
2022-09-28T05:09:26.276Z,1.02
2022-09-28T05:11:54.099Z,1.45
2022-09-28T05:14:23.281Z,1.10
2022-09-28T05:16:51.190Z,1.27
2022-09-28T05:19:19.130Z,1.20
2022-09-28T05:21:48.757Z,1.70
2022-09-28T05:24:16.581Z,1.50
2022-09-28T05:26:44.399Z,1.52
2022-09-28T05:29:12.513Z,1.25
2022-09-28T05:31:41.801Z,1.67
2022-09-28T05:34:09.715Z,1.70
2022-09-28T05:36:39.094Z,1.23
2022-09-28T05:39:07.304Z,1.83
2022-09-28T05:41:35.167Z,1.50
2022-09-28T05:44:03.208Z,1.58
2022-09-28T05:46:31.414Z,1.48
2022-09-28T05:49:00.929Z,1.35
2022-09-28T05:51:28.774Z,1.70
2022-09-28T05:53:58.834Z,1.48
2022-09-28T05:56:31.098Z,1.33
2022-09-28T05:58:59.375Z,1.33
2022-09-28T06:01:27.315Z,1.33
2022-09-28T06:03:55.201Z,1.20
2022-09-28T06:06:24.478Z,1.13
2022-09-28T06:08:52.397Z,0.95
2022-09-28T06:11:20.237Z,1.00
2022-09-28T06:13:48.076Z,1.00
2022-09-28T06:16:17.127Z,0.98
2022-09-28T06:18:45.060Z,1.98
2022-09-28T06:21:14.326Z,1.33
2022-09-28T06:23:48.163Z,1.20
2022-09-28T06:26:17.577Z,1.45
2022-09-28T06:28:45.534Z,1.40
2022-09-28T06:31:13.544Z,1.00
2022-09-28T06:33:42.029Z,1.10
2022-09-28T06:36:10.276Z,1.65
2022-09-28T06:38:38.308Z,1.50
2022-09-28T06:41:07.698Z,1.05
2022-09-28T06:43:39.512Z,1.17
2022-09-28T06:46:09.799Z,1.92
2022-09-28T06:48:38.054Z,1.00
2022-09-28T06:51:06.271Z,1.20
2022-09-28T06:53:34.156Z,0.98
2022-09-28T06:56:02.488Z,1.20
2022-09-28T06:58:32.245Z,0.85
2022-09-28T07:01:00.323Z,0.77
2022-09-28T07:03:28.841Z,0.90
2022-09-28T07:05:57.353Z,0.75
2022-09-28T07:08:28.668Z,1.20
2022-09-28T07:10:57.082Z,0.80
2022-09-28T07:13:48.893Z,1.13
2022-09-28T07:16:15.982Z,1.25
2022-09-28T07:18:43.828Z,1.20
2022-09-28T07:21:23.826Z,1.52
2022-09-28T07:23:56.328Z,1.40
2022-09-28T07:26:25.611Z,1.70
2022-09-28T07:28:54.959Z,1.83
2022-09-28T07:31:26.038Z,1.70
2022-09-28T07:33:54.098Z,2.60
2022-09-28T07:36:22.663Z,2.70
2022-09-28T07:38:50.690Z,1.88
2022-09-28T07:41:21.628Z,2.20
2022-09-28T07:43:50.081Z,2.72
2022-09-28T07:46:18.151Z,2.25
2022-09-28T07:48:47.403Z,2.10
2022-09-28T07:51:17.757Z,2.05
2022-09-28T07:53:45.791Z,2.17
2022-09-28T07:56:17.254Z,1.60
2022-09-28T07:58:45.166Z,1.65
2022-09-28T08:01:14.948Z,3.05
2022-09-28T08:03:45.120Z,2.60
2022-09-28T08:06:17.053Z,2.00
2022-09-28T08:08:45.516Z,1.90
2022-09-28T08:11:14.906Z,2.65
2022-09-28T08:13:43.957Z,4.00
2022-09-28T08:16:13.334Z,4.70
2022-09-28T08:18:41.309Z,6.85
2022-09-28T08:21:28.307Z,5.57
2022-09-28T08:23:57.543Z,3.03
2022-09-28T08:26:25.525Z,2.60
2022-09-28T08:28:53.349Z,2.25
2022-09-28T08:31:21.212Z,2.05
2022-09-28T08:33:54.304Z,2.55
2022-09-28T08:36:22.187Z,1.90
2022-09-28T08:38:50.025Z,1.98
2022-09-28T08:41:26.751Z,2.20
2022-09-28T08:44:13.725Z,3.03
2022-09-28T08:46:44.635Z,3.67
2022-09-28T08:49:25.303Z,2.58
2022-09-28T08:52:01.921Z,3.00
2022-09-28T08:54:37.630Z,3.20
2022-09-28T08:57:12.989Z,2.75
2022-09-28T08:59:47.819Z,2.97
2022-09-28T09:02:19.329Z,2.80
2022-09-28T09:04:47.451Z,2.40
2022-09-28T09:07:45.759Z,2.17
2022-09-28T09:10:38.285Z,1.70
2022-09-28T09:13:19.771Z,2.17
2022-09-28T09:15:55.121Z,2.42
2022-09-28T09:18:30.764Z,3.28
2022-09-28T09:21:02.257Z,3.65
2022-09-28T09:23:38.320Z,3.70
2022-09-28T09:26:19.399Z,2.72
2022-09-28T09:29:11.542Z,2.83
2022-09-28T09:31:53.060Z,2.20
2022-09-28T09:34:33.124Z,1.92
2022-09-28T09:37:17.822Z,1.88
2022-09-28T09:40:00.328Z,2.25
2022-09-28T09:42:45.994Z,1.90
2022-09-28T09:45:28.010Z,1.60
2022-09-28T09:48:01.481Z,2.00
2022-09-28T09:50:34.395Z,1.80
2022-09-28T09:53:06.251Z,1.88
2022-09-28T09:55:40.617Z,1.60
2022-09-28T09:58:12.879Z,1.83
2022-09-28T10:00:45.943Z,1.60
2022-09-28T10:03:23.122Z,1.45
2022-09-28T10:05:57.315Z,2.53
2022-09-28T10:08:26.573Z,1.58
2022-09-28T10:10:57.543Z,1.40
2022-09-28T10:13:25.343Z,1.45
2022-09-28T10:15:55.468Z,2.22
2022-09-28T10:18:23.297Z,1.60
2022-09-28T10:20:51.148Z,1.85
2022-09-28T10:23:24.116Z,1.60
2022-09-28T10:25:55.757Z,1.40
2022-09-28T10:28:40.033Z,2.40
2022-09-28T10:31:41.677Z,1.48
2022-09-28T10:34:14.098Z,1.70
2022-09-28T10:36:55.099Z,1.25
2022-09-28T10:39:30.975Z,1.60
2022-09-28T10:42:02.564Z,1.50
2022-09-28T10:44:33.540Z,1.92
2022-09-28T10:47:07.906Z,1.45
2022-09-28T10:49:47.044Z,1.50
2022-09-28T10:52:39.793Z,1.15
2022-09-28T10:55:30.605Z,1.70
2022-09-28T10:57:58.586Z,1.92
2022-09-28T11:00:40.122Z,1.35
2022-09-28T11:03:20.277Z,1.35
2022-09-28T11:05:55.840Z,1.90
2022-09-28T11:08:28.210Z,1.70
2022-09-28T11:11:10.662Z,1.40
2022-09-28T11:13:45.045Z,1.20
2022-09-28T11:16:28.427Z,1.48
2022-09-28T11:18:58.272Z,1.30
2022-09-28T11:21:28.411Z,2.08
2022-09-28T11:24:07.504Z,1.40
2022-09-28T11:26:43.908Z,1.20
2022-09-28T11:29:27.581Z,1.55
2022-09-28T11:32:01.397Z,0.88
2022-09-28T11:34:54.944Z,1.23
2022-09-28T11:37:44.542Z,1.27
2022-09-28T11:40:26.908Z,1.10
2022-09-28T11:45:48.324Z,1.50
2022-09-28T11:48:19.418Z,1.60
2022-09-28T11:50:53.895Z,1.27
2022-09-28T11:53:28.414Z,1.20
2022-09-28T11:56:03.220Z,1.20
2022-09-28T11:58:36.434Z,1.40
2022-09-28T12:01:08.219Z,1.17
2022-09-28T12:03:42.977Z,1.10
2022-09-28T12:06:17.113Z,1.50
2022-09-28T12:08:53.395Z,1.10
2022-09-28T12:11:26.248Z,1.65
2022-09-28T12:13:57.422Z,1.35
2022-09-28T12:19:21.071Z,1.30
2022-09-28T12:21:52.310Z,1.63
2022-09-28T12:24:26.851Z,2.17
2022-09-28T12:26:59.224Z,0.98
2022-09-28T12:29:31.497Z,1.23
2022-09-28T12:32:10.938Z,1.48
2022-09-28T12:34:42.256Z,2.20
2022-09-28T12:37:28.675Z,1.10
2022-09-28T12:40:08.916Z,1.60
2022-09-28T12:43:01.405Z,1.58
2022-09-28T12:46:07.053Z,1.40
2022-09-28T12:49:21.679Z,1.50
2022-09-28T12:51:48.871Z,1.48
2022-09-28T12:54:43.158Z,1.10
2022-09-28T12:57:31.983Z,1.30
2022-09-28T13:02:51.260Z,1.55
2022-09-28T13:05:37.357Z,1.50
2022-09-28T13:08:09.405Z,1.27
2022-09-28T13:10:43.829Z,2.63
2022-09-28T13:13:32.705Z,1.10
2022-09-28T13:18:40.398Z,1.27
2022-09-28T13:21:19.581Z,1.48
2022-09-28T13:23:49.457Z,1.38
2022-09-28T13:26:25.755Z,1.10
2022-09-28T13:28:58.752Z,1.20
2022-09-28T13:31:32.454Z,0.90
2022-09-28T13:34:04.429Z,1.23
2022-09-28T13:36:37.904Z,1.10
2022-09-28T13:39:37.662Z,1.00
2022-09-28T13:42:09.309Z,1.17
2022-09-28T13:45:03.046Z,1.15
2022-09-28T13:47:57.563Z,1.15
2022-09-28T13:50:35.519Z,1.40
2022-09-28T13:53:14.275Z,1.10
2022-09-28T13:55:57.056Z,1.58
2022-09-28T13:58:28.955Z,1.25
2022-09-28T14:01:02.141Z,1.00
2022-09-28T14:03:44.749Z,1.05
2022-09-28T14:06:24.505Z,0.98
2022-09-28T14:09:24.602Z,1.27
2022-09-28T14:11:59.027Z,1.50
2022-09-28T14:14:50.877Z,1.00
2022-09-28T14:17:55.339Z,1.20
2022-09-28T14:20:27.146Z,1.00
2022-09-28T14:23:18.581Z,0.82
2022-09-28T14:25:59.649Z,1.05
2022-09-28T14:28:43.188Z,0.80
2022-09-28T14:31:27.498Z,0.70
2022-09-28T14:33:58.758Z,1.10
2022-09-28T14:36:47.438Z,1.17
2022-09-28T14:39:41.137Z,1.17
2022-09-28T14:42:12.734Z,0.88
2022-09-28T14:45:34.737Z,1.00
2022-09-28T14:48:15.087Z,0.90
2022-09-28T14:50:42.978Z,1.25
2022-09-28T14:53:13.970Z,1.30
2022-09-28T14:55:52.333Z,1.00
2022-09-28T14:58:23.566Z,1.27
2022-09-28T15:00:59.196Z,1.40
2022-09-28T15:03:30.058Z,1.48
2022-09-28T15:05:58.590Z,1.33
2022-09-28T15:08:38.468Z,1.40
2022-09-28T15:11:08.369Z,1.73
2022-09-28T15:13:36.567Z,1.45
2022-09-28T15:16:11.369Z,1.30
2022-09-28T15:19:09.312Z,1.40
2022-09-28T15:21:38.546Z,1.20
2022-09-28T15:24:28.592Z,1.20
2022-09-28T15:26:56.720Z,0.93
2022-09-28T15:29:27.163Z,1.23
2022-09-28T15:31:56.310Z,2.53
2022-09-28T15:34:49.706Z,0.93
2022-09-28T15:37:21.823Z,1.38
2022-09-28T15:39:51.257Z,1.10
2022-09-28T15:42:20.244Z,1.13
2022-09-28T15:45:24.849Z,1.73
2022-09-28T15:47:58.490Z,1.05
2022-09-28T15:50:29.811Z,1.48
2022-09-28T15:53:00.745Z,1.40
2022-09-28T15:55:31.475Z,1.45
2022-09-28T15:58:07.885Z,1.30
2022-09-28T16:00:36.471Z,0.98
2022-09-28T16:03:22.140Z,0.98
2022-09-28T16:05:52.042Z,1.30
2022-09-28T16:08:25.515Z,1.00
2022-09-28T16:10:58.428Z,1.20
2022-09-28T16:13:26.690Z,1.30
2022-09-28T16:15:59.804Z,0.95
2022-09-28T16:18:32.377Z,1.05
2022-09-28T16:21:17.855Z,1.20
2022-09-28T16:23:52.243Z,1.20
2022-09-28T16:26:31.292Z,1.20
2022-09-28T16:28:59.779Z,1.95
2022-09-28T16:31:34.310Z,1.40
2022-09-28T16:34:19.851Z,1.27
2022-09-28T16:36:49.366Z,1.20
2022-09-28T16:39:18.748Z,1.50
2022-09-28T16:41:50.378Z,1.42
2022-09-28T16:44:24.696Z,1.20
2022-09-28T16:46:55.097Z,1.33
2022-09-28T16:49:26.273Z,1.30
2022-09-28T16:51:54.400Z,1.35
2022-09-28T16:54:41.371Z,1.40
2022-09-28T16:57:12.775Z,1.45
2022-09-28T16:59:40.787Z,1.58
2022-09-28T17:05:11.083Z,1.92
2022-09-28T17:07:39.345Z,1.42
2022-09-28T17:10:19.216Z,1.98
2022-09-28T17:12:47.535Z,2.03
2022-09-28T17:15:19.418Z,1.80
2022-09-28T17:17:47.816Z,1.88
2022-09-28T17:20:22.928Z,1.63
2022-09-28T17:22:51.099Z,1.90
2022-09-28T17:25:19.970Z,2.17
2022-09-28T17:27:49.962Z,2.08
2022-09-28T17:30:20.300Z,1.98
2022-09-28T17:32:51.689Z,2.30
2022-09-28T17:35:25.300Z,2.38
2022-09-28T17:37:53.721Z,2.42
2022-09-28T17:40:23.298Z,2.60
2022-09-28T17:42:51.853Z,2.20
2022-09-28T17:45:19.737Z,2.60
2022-09-28T17:47:47.574Z,3.03
2022-09-28T17:50:23.907Z,2.72
2022-09-28T17:52:53.021Z,3.30
2022-09-28T17:55:22.521Z,2.92
2022-09-28T17:57:50.718Z,3.75
2022-09-28T18:00:19.154Z,3.92
2022-09-28T18:02:47.785Z,3.90
2022-09-28T18:05:15.730Z,4.05
2022-09-28T18:07:47.708Z,4.28
2022-09-28T18:10:17.207Z,4.65
2022-09-28T18:12:45.215Z,3.70
2022-09-28T18:15:13.563Z,4.32
2022-09-28T18:17:41.859Z,3.85
2022-09-28T18:20:12.057Z,4.25
2022-09-28T18:22:39.925Z,3.60
2022-09-28T18:25:11.020Z,4.13
2022-09-28T18:27:38.959Z,3.63
2022-09-28T18:30:08.035Z,3.65
2022-09-28T18:32:37.310Z,3.60
2022-09-28T18:35:05.526Z,4.65
2022-09-28T18:37:37.321Z,4.05
2022-09-28T18:40:06.099Z,3.85
2022-09-28T18:42:35.541Z,4.40
2022-09-28T18:45:04.070Z,3.45
2022-09-28T18:47:33.072Z,4.38
2022-09-28T18:50:00.999Z,3.80
2022-09-28T18:52:28.913Z,3.80
2022-09-28T18:54:56.839Z,4.93
2022-09-28T18:57:24.680Z,4.28
2022-09-28T18:59:53.992Z,3.90
2022-09-28T19:02:21.922Z,3.90
2022-09-28T19:04:49.871Z,3.90
2022-09-28T19:07:17.825Z,3.75
2022-09-28T19:09:45.670Z,4.90
2022-09-28T19:12:13.600Z,3.80
2022-09-28T19:14:41.611Z,4.22
2022-09-28T19:17:11.860Z,4.78
2022-09-28T19:19:40.916Z,4.13
2022-09-28T19:22:08.768Z,4.32
2022-09-28T19:24:36.690Z,4.22
2022-09-28T19:27:04.664Z,3.83
2022-09-28T19:29:32.521Z,4.07
2022-09-28T19:32:00.377Z,3.53
2022-09-28T19:34:30.120Z,4.00
2022-09-28T19:36:58.370Z,3.70
2022-09-28T19:39:26.234Z,4.60
2022-09-28T19:41:54.293Z,4.45
2022-09-28T19:44:25.632Z,3.83
2022-09-28T19:46:55.263Z,3.30
2022-09-28T19:49:24.008Z,3.80
2022-09-28T19:52:13.883Z,3.78
2022-09-28T19:54:43.717Z,3.55
2022-09-28T19:57:12.025Z,3.67
2022-09-28T19:59:40.297Z,3.67
2022-09-28T20:02:08.947Z,4.05
2022-09-28T20:04:37.107Z,3.78
2022-09-28T20:07:06.320Z,3.90
2022-09-28T20:09:34.523Z,3.28
2022-09-28T20:12:02.626Z,4.35
2022-09-28T20:14:33.045Z,3.90
2022-09-28T20:17:02.002Z,4.38
2022-09-28T20:19:29.878Z,4.43
2022-09-28T20:21:59.286Z,4.13
2022-09-28T20:24:29.013Z,3.97
2022-09-28T20:26:56.970Z,3.65
2022-09-28T20:29:25.284Z,3.90
2022-09-28T20:31:53.285Z,3.92
2022-09-28T20:34:21.128Z,3.78
2022-09-28T20:36:48.959Z,3.85
2022-09-28T20:39:16.907Z,4.00
2022-09-28T20:41:47.166Z,4.50
2022-09-28T20:44:15.115Z,3.92
2022-09-28T20:46:44.264Z,4.00
2022-09-28T20:49:12.298Z,4.18
2022-09-28T20:51:40.130Z,4.32
2022-09-28T20:54:08.290Z,3.88
2022-09-28T20:56:38.205Z,3.72
2022-09-28T20:59:08.799Z,4.60
2022-09-28T21:01:37.132Z,3.75
2022-09-28T21:04:07.030Z,4.45
2022-09-28T21:06:37.471Z,4.28
2022-09-28T21:09:06.734Z,4.30
2022-09-28T21:11:35.628Z,4.72
2022-09-28T21:14:06.043Z,5.57
2022-09-28T21:16:36.170Z,4.13
2022-09-28T21:19:04.797Z,4.45
2022-09-28T21:21:32.709Z,4.18
2022-09-28T21:24:00.803Z,4.65
2022-09-28T21:26:31.089Z,4.00
2022-09-28T21:29:00.737Z,3.90
2022-09-28T21:31:31.298Z,4.80
2022-09-28T21:34:00.570Z,4.75
2022-09-28T21:36:28.416Z,5.82
2022-09-28T21:38:56.338Z,5.38
2022-09-28T21:41:24.516Z,5.50
2022-09-28T21:43:52.687Z,4.80
2022-09-28T21:46:20.620Z,6.03
2022-09-28T21:48:53.322Z,5.88
2022-09-28T21:51:22.666Z,5.63
2022-09-28T21:53:50.696Z,5.72
2022-09-28T21:56:18.584Z,5.78
2022-09-28T21:58:46.652Z,5.80
2022-09-28T22:01:18.249Z,5.40
2022-09-28T22:03:47.953Z,6.70
2022-09-28T22:06:17.001Z,5.93
2022-09-28T22:08:46.787Z,6.22
2022-09-28T22:11:17.140Z,6.10
2022-09-28T22:13:45.964Z,5.97
2022-09-28T22:16:15.640Z,5.82
2022-09-28T22:18:43.843Z,5.38
2022-09-28T22:21:14.594Z,5.93
2022-09-28T22:23:42.711Z,6.45
2022-09-28T22:26:14.543Z,6.10
2022-09-28T22:28:46.906Z,6.40
2022-09-28T22:31:15.349Z,5.78
2022-09-28T22:33:43.301Z,5.85
2022-09-28T22:36:11.839Z,5.95
2022-09-28T22:38:39.991Z,5.93
2022-09-28T22:41:08.047Z,6.15
2022-09-28T22:43:37.888Z,5.60
2022-09-28T22:46:08.126Z,6.28
2022-09-28T22:48:36.439Z,5.55
2022-09-28T22:51:06.130Z,5.63
2022-09-28T22:53:34.422Z,6.43
2022-09-28T22:56:05.178Z,6.80
2022-09-28T22:58:33.399Z,5.82
2022-09-28T23:01:08.602Z,5.38
2022-09-28T23:03:37.203Z,5.95
2022-09-28T23:06:05.162Z,6.20
2022-09-28T23:08:33.356Z,5.72
2022-09-28T23:11:01.711Z,5.80
2022-09-28T23:13:31.042Z,6.22
2022-09-28T23:15:59.939Z,5.88
2022-09-28T23:18:31.473Z,5.68
2022-09-28T23:21:02.656Z,5.95
2022-09-28T23:23:31.134Z,5.78
2022-09-28T23:25:59.464Z,5.40
2022-09-28T23:28:28.482Z,5.95
2022-09-28T23:30:56.464Z,6.13
2022-09-28T23:33:24.378Z,5.53
2022-09-28T23:35:53.592Z,5.50
2022-09-28T23:38:21.442Z,5.15
2022-09-28T23:40:49.406Z,5.53
2022-09-28T23:43:17.275Z,5.40
2022-09-28T23:45:45.506Z,5.65
2022-09-28T23:48:14.817Z,5.22
2022-09-28T23:50:43.226Z,5.30
2022-09-28T23:53:13.617Z,5.13
2022-09-28T23:55:43.071Z,5.97
2022-09-28T23:58:11.789Z,5.75
